createdAt,value
2023-01-19T00:00:10.801Z,17.94
2023-01-19T00:02:39.944Z,17.94
2023-01-19T00:05:08.272Z,17.93
2023-01-19T00:07:35.987Z,17.92
2023-01-19T00:10:03.704Z,17.93
2023-01-19T00:12:31.386Z,17.95
2023-01-19T00:14:59.609Z,17.95
2023-01-19T00:17:27.286Z,17.96
2023-01-19T00:19:56.307Z,17.99
2023-01-19T00:22:23.986Z,18.00
2023-01-19T00:24:51.660Z,17.99
2023-01-19T00:27:19.334Z,17.96
2023-01-19T00:29:47.163Z,17.98
2023-01-19T00:32:14.874Z,18.02
2023-01-19T00:34:42.567Z,18.04
2023-01-19T00:37:12.000Z,18.03
2023-01-19T00:39:39.660Z,18.02
2023-01-19T00:42:25.027Z,18.04
2023-01-19T00:44:52.707Z,18.04
2023-01-19T00:47:20.378Z,18.06
2023-01-19T00:49:48.052Z,18.05
2023-01-19T00:52:17.160Z,18.05
2023-01-19T00:54:44.825Z,18.06
2023-01-19T00:57:12.662Z,18.03
2023-01-19T00:59:40.375Z,18.02
2023-01-19T01:02:08.180Z,18.03
2023-01-19T01:04:35.941Z,18.03
2023-01-19T01:07:04.189Z,18.02
2023-01-19T01:09:33.327Z,18.03
2023-01-19T01:12:00.987Z,18.03
2023-01-19T01:14:28.863Z,18.02
2023-01-19T01:16:56.579Z,18.05
2023-01-19T01:19:24.258Z,18.05
2023-01-19T01:21:51.942Z,18.05
2023-01-19T01:24:20.749Z,18.05
2023-01-19T01:26:49.771Z,18.06
2023-01-19T01:29:17.424Z,18.04
2023-01-19T01:31:45.373Z,18.02
2023-01-19T01:34:13.063Z,18.02
2023-01-19T01:36:40.730Z,18.01
2023-01-19T01:39:08.415Z,18.01
2023-01-19T01:41:36.111Z,18.01
2023-01-19T01:44:08.263Z,18.00
2023-01-19T01:46:36.233Z,18.00
2023-01-19T01:49:05.565Z,17.99
2023-01-19T01:51:34.546Z,17.99
2023-01-19T01:54:09.904Z,18.00
2023-01-19T01:56:39.753Z,17.99
2023-01-19T01:59:10.393Z,17.98
2023-01-19T02:01:55.676Z,17.99
2023-01-19T02:04:23.735Z,17.98
2023-01-19T02:07:09.049Z,17.96
2023-01-19T02:09:55.574Z,17.96
2023-01-19T02:12:41.450Z,17.95
2023-01-19T02:15:17.618Z,17.94
2023-01-19T02:17:45.289Z,17.94
2023-01-19T02:20:13.302Z,17.96
2023-01-19T02:22:44.282Z,17.95
2023-01-19T02:25:13.289Z,17.94
2023-01-19T02:27:40.958Z,17.96
2023-01-19T02:30:10.028Z,17.97
2023-01-19T02:32:37.689Z,17.99
2023-01-19T02:35:05.757Z,18.00
2023-01-19T02:37:34.229Z,18.01
2023-01-19T02:40:02.783Z,18.01
2023-01-19T02:42:33.554Z,18.01
2023-01-19T02:45:06.524Z,18.03
2023-01-19T02:47:38.806Z,18.02
2023-01-19T02:50:07.134Z,18.03
2023-01-19T02:52:34.789Z,18.01
2023-01-19T02:55:05.543Z,17.99
2023-01-19T02:57:44.357Z,18.00
2023-01-19T03:00:18.845Z,17.99
2023-01-19T03:02:51.849Z,17.98
2023-01-19T03:05:33.489Z,17.98
2023-01-19T03:08:07.801Z,17.98
2023-01-19T03:10:41.265Z,17.96
2023-01-19T03:13:12.094Z,17.95
2023-01-19T03:15:42.132Z,17.95
2023-01-19T03:18:10.466Z,17.94
2023-01-19T03:20:38.128Z,17.93
2023-01-19T03:23:08.039Z,17.94
2023-01-19T03:25:37.670Z,17.93
2023-01-19T03:28:05.737Z,17.94
2023-01-19T03:30:36.203Z,17.94
2023-01-19T03:33:07.241Z,17.94
2023-01-19T03:35:36.757Z,17.94
2023-01-19T03:38:08.613Z,17.94
2023-01-19T03:40:36.314Z,17.92
2023-01-19T03:43:04.192Z,17.91
2023-01-19T03:45:32.595Z,17.91
2023-01-19T03:48:01.626Z,17.90
2023-01-19T03:50:30.183Z,17.88
2023-01-19T03:53:07.409Z,17.88
2023-01-19T03:55:35.515Z,17.88
2023-01-19T03:58:03.257Z,17.87
2023-01-19T04:00:31.038Z,17.85
2023-01-19T04:02:59.356Z,17.84
2023-01-19T04:05:29.364Z,17.86
2023-01-19T04:07:57.030Z,17.85
2023-01-19T04:10:24.765Z,17.84
2023-01-19T04:12:58.329Z,17.83
2023-01-19T04:15:26.193Z,17.82
2023-01-19T04:17:53.867Z,17.82
2023-01-19T04:20:22.063Z,17.81
2023-01-19T04:22:51.085Z,17.81
2023-01-19T04:25:18.744Z,17.80
2023-01-19T04:27:46.429Z,17.80
2023-01-19T04:30:14.887Z,17.80
2023-01-19T04:32:42.538Z,17.81
2023-01-19T04:35:10.388Z,17.81
2023-01-19T04:37:38.093Z,17.81
2023-01-19T04:40:08.954Z,17.81
2023-01-19T04:42:36.653Z,17.80
2023-01-19T04:45:04.591Z,17.79
2023-01-19T04:47:32.262Z,17.79
2023-01-19T04:50:00.002Z,17.79
2023-01-19T04:52:34.836Z,17.77
2023-01-19T04:55:02.803Z,17.75
2023-01-19T04:57:31.997Z,17.76
2023-01-19T04:59:59.704Z,17.75
2023-01-19T05:02:27.478Z,17.75
2023-01-19T05:04:55.201Z,17.75
2023-01-19T05:07:22.883Z,17.75
2023-01-19T05:09:50.572Z,17.75
2023-01-19T05:12:18.285Z,17.75
2023-01-19T05:14:47.336Z,17.77
2023-01-19T05:17:15.023Z,17.78
2023-01-19T05:19:42.699Z,17.78
2023-01-19T05:22:10.642Z,17.81
2023-01-19T05:24:38.304Z,17.80
2023-01-19T05:27:05.962Z,17.82
2023-01-19T05:29:34.246Z,17.83
2023-01-19T05:32:03.335Z,17.85
2023-01-19T05:34:31.048Z,17.85
2023-01-19T05:36:58.706Z,17.86
2023-01-19T05:39:26.749Z,17.88
2023-01-19T05:41:54.432Z,17.91
2023-01-19T05:44:22.189Z,17.91
2023-01-19T05:46:49.910Z,17.92
2023-01-19T05:49:19.051Z,17.94
2023-01-19T05:51:46.697Z,17.96
2023-01-19T05:54:15.246Z,17.95
2023-01-19T05:56:42.943Z,17.95
2023-01-19T05:59:10.660Z,17.95
2023-01-19T06:01:39.876Z,17.93
2023-01-19T06:04:07.891Z,17.92
2023-01-19T06:06:36.931Z,17.92
2023-01-19T06:09:04.707Z,17.93
2023-01-19T06:11:32.394Z,17.93
2023-01-19T06:14:00.064Z,17.93
2023-01-19T06:16:28.051Z,17.95
2023-01-19T06:18:55.839Z,17.94
2023-01-19T06:21:24.016Z,17.94
2023-01-19T06:23:53.041Z,17.91
2023-01-19T06:26:20.720Z,17.90
2023-01-19T06:28:48.516Z,17.91
2023-01-19T06:31:16.261Z,17.88
2023-01-19T06:33:43.942Z,17.87
2023-01-19T06:36:11.610Z,17.89
2023-01-19T06:38:39.318Z,17.91
2023-01-19T06:41:08.401Z,17.88
2023-01-19T06:43:36.078Z,17.87
2023-01-19T06:46:04.758Z,17.83
2023-01-19T06:48:32.499Z,17.82
2023-01-19T06:51:00.180Z,17.82
2023-01-19T06:53:30.089Z,17.81
2023-01-19T06:56:00.213Z,17.81
2023-01-19T06:58:29.586Z,17.82
2023-01-19T07:01:00.165Z,17.82
2023-01-19T07:03:27.933Z,17.88
2023-01-19T07:05:56.811Z,17.94
2023-01-19T07:08:24.752Z,17.95
2023-01-19T07:11:22.320Z,18.00
2023-01-19T07:13:42.934Z,18.01
2023-01-19T07:16:12.182Z,18.02
2023-01-19T07:18:40.164Z,18.04
2023-01-19T07:21:07.922Z,18.07
2023-01-19T07:23:35.611Z,18.08
2023-01-19T07:26:03.315Z,18.09
2023-01-19T07:28:31.586Z,18.08
2023-01-19T07:31:00.732Z,18.10
2023-01-19T07:33:29.853Z,18.12
2023-01-19T07:35:57.505Z,18.12
2023-01-19T07:38:25.254Z,18.11
2023-01-19T07:40:52.905Z,18.11
2023-01-19T07:43:20.953Z,18.10
2023-01-19T07:45:48.677Z,18.08
2023-01-19T07:48:17.761Z,18.07
2023-01-19T07:50:45.647Z,18.07
2023-01-19T07:53:13.289Z,18.06
2023-01-19T07:55:40.942Z,18.05
2023-01-19T07:58:08.604Z,18.03
2023-01-19T08:00:36.424Z,18.02
2023-01-19T08:03:04.489Z,18.01
2023-01-19T08:05:33.824Z,18.00
2023-01-19T08:08:01.514Z,17.99
2023-01-19T08:10:29.495Z,17.98
2023-01-19T08:12:57.524Z,17.98
2023-01-19T08:15:25.423Z,17.97
2023-01-19T08:17:57.702Z,17.97
2023-01-19T08:20:25.782Z,17.97
2023-01-19T08:23:00.006Z,17.98
2023-01-19T08:25:28.619Z,17.94
2023-01-19T08:27:57.020Z,17.94
2023-01-19T08:30:26.663Z,17.95
2023-01-19T08:32:54.919Z,17.95
2023-01-19T08:35:23.695Z,17.95
2023-01-19T08:37:51.382Z,17.95
2023-01-19T08:40:20.712Z,17.95
2023-01-19T08:42:48.533Z,17.96
2023-01-19T08:45:16.355Z,17.94
2023-01-19T08:47:44.053Z,17.94
2023-01-19T08:50:12.726Z,17.93
2023-01-19T08:52:40.391Z,17.96
2023-01-19T08:55:11.184Z,17.94
2023-01-19T08:57:40.989Z,17.95
2023-01-19T09:00:11.027Z,17.95
2023-01-19T09:02:38.843Z,17.96
2023-01-19T09:05:07.724Z,17.97
2023-01-19T09:07:35.769Z,17.95
2023-01-19T09:10:03.900Z,17.95
2023-01-19T09:12:31.577Z,17.98
2023-01-19T09:15:00.722Z,17.96
2023-01-19T09:17:28.481Z,17.95
2023-01-19T09:19:56.127Z,17.95
2023-01-19T09:22:23.834Z,17.95
2023-01-19T09:24:51.489Z,17.96
2023-01-19T09:27:19.131Z,18.00
2023-01-19T09:29:52.304Z,18.01
2023-01-19T09:32:21.582Z,18.02
2023-01-19T09:34:49.275Z,18.03
2023-01-19T09:37:17.115Z,18.04
2023-01-19T09:39:44.827Z,18.05
2023-01-19T09:42:17.155Z,18.05
2023-01-19T09:44:44.835Z,18.07
2023-01-19T09:47:14.877Z,18.07
2023-01-19T09:49:45.466Z,18.08
2023-01-19T09:52:13.390Z,18.08
2023-01-19T09:54:44.107Z,18.08
2023-01-19T09:57:12.122Z,18.07
2023-01-19T09:59:39.776Z,18.06
2023-01-19T10:02:14.123Z,18.05
2023-01-19T10:04:43.655Z,18.02
2023-01-19T10:07:15.945Z,18.02
2023-01-19T10:09:58.234Z,18.01
2023-01-19T10:12:33.814Z,18.00
2023-01-19T10:15:04.735Z,17.99
2023-01-19T10:17:38.357Z,17.99
2023-01-19T10:20:09.838Z,18.00
2023-01-19T10:22:37.696Z,18.00
2023-01-19T10:25:06.462Z,17.98
2023-01-19T10:27:34.858Z,18.00
2023-01-19T10:30:02.575Z,18.02
2023-01-19T10:32:31.047Z,18.03
2023-01-19T10:34:59.829Z,18.06
2023-01-19T10:37:31.751Z,18.08
2023-01-19T10:40:02.035Z,18.10
2023-01-19T10:42:30.539Z,18.12
2023-01-19T10:44:58.195Z,18.13
2023-01-19T10:47:31.067Z,18.16
2023-01-19T10:49:58.756Z,18.18
2023-01-19T10:52:30.960Z,18.19
2023-01-19T10:54:59.285Z,18.18
2023-01-19T10:57:30.492Z,18.19
2023-01-19T10:59:58.425Z,18.20
2023-01-19T11:02:27.712Z,18.21
2023-01-19T11:04:56.469Z,18.22
2023-01-19T11:07:24.798Z,18.21
2023-01-19T11:10:13.217Z,18.21
2023-01-19T11:12:41.784Z,18.22
2023-01-19T11:15:14.974Z,18.21
2023-01-19T11:17:42.955Z,18.21
2023-01-19T11:20:19.643Z,18.19
2023-01-19T11:22:48.832Z,18.21
2023-01-19T11:25:27.961Z,18.19
2023-01-19T11:27:55.640Z,18.22
2023-01-19T11:30:25.041Z,18.26
2023-01-19T11:32:52.835Z,18.30
2023-01-19T11:35:35.085Z,18.31
2023-01-19T11:38:14.829Z,18.32
2023-01-19T11:40:43.899Z,18.31
2023-01-19T11:43:11.947Z,18.30
2023-01-19T11:45:39.678Z,18.27
2023-01-19T11:48:07.756Z,18.25
2023-01-19T11:50:37.412Z,18.24
2023-01-19T11:53:07.414Z,18.21
2023-01-19T11:55:37.851Z,18.20
2023-01-19T11:58:06.891Z,18.19
2023-01-19T12:00:36.850Z,18.17
2023-01-19T12:03:07.954Z,18.18
2023-01-19T12:05:35.675Z,18.20
2023-01-19T12:08:06.733Z,18.18
2023-01-19T12:10:36.393Z,18.18
2023-01-19T12:13:04.210Z,18.18
2023-01-19T12:15:36.103Z,18.18
2023-01-19T12:18:04.180Z,18.14
2023-01-19T12:20:32.818Z,18.13
2023-01-19T12:23:05.441Z,18.12
2023-01-19T12:25:37.279Z,18.13
2023-01-19T12:28:06.398Z,18.15
2023-01-19T12:30:35.906Z,18.16
2023-01-19T12:33:23.020Z,18.17
2023-01-19T12:35:58.027Z,18.22
2023-01-19T12:38:37.590Z,18.29
2023-01-19T12:41:25.515Z,18.32
2023-01-19T12:44:22.136Z,18.33
2023-01-19T12:46:51.886Z,18.36
2023-01-19T12:49:25.147Z,18.37
2023-01-19T12:51:54.026Z,18.39
2023-01-19T12:54:27.199Z,18.44
2023-01-19T12:56:58.383Z,18.48
2023-01-19T12:59:26.700Z,18.51
2023-01-19T13:02:43.360Z,18.54
2023-01-19T13:05:27.473Z,18.58
2023-01-19T13:08:23.428Z,18.60
2023-01-19T13:11:16.058Z,18.63
2023-01-19T13:13:44.482Z,18.64
2023-01-19T13:16:48.114Z,18.66
2023-01-19T13:19:18.249Z,18.64
2023-01-19T13:21:46.494Z,18.64
2023-01-19T13:24:15.701Z,18.63
2023-01-19T13:26:44.355Z,18.61
2023-01-19T13:29:26.104Z,18.62
2023-01-19T13:31:55.364Z,18.63
2023-01-19T13:34:25.861Z,18.62
2023-01-19T13:36:54.467Z,18.60
2023-01-19T13:39:25.269Z,18.59
2023-01-19T13:41:53.780Z,18.58
2023-01-19T13:44:23.686Z,18.57
2023-01-19T13:46:51.398Z,18.55
2023-01-19T13:49:21.157Z,18.54
2023-01-19T13:52:08.539Z,18.54
2023-01-19T13:54:36.300Z,18.59
2023-01-19T13:57:03.974Z,18.63
2023-01-19T13:59:31.661Z,18.63
2023-01-19T14:02:02.321Z,18.63
2023-01-19T14:04:31.055Z,18.63
2023-01-19T14:06:59.799Z,18.65
2023-01-19T14:09:28.840Z,18.68
2023-01-19T14:12:12.085Z,18.65
2023-01-19T14:14:41.089Z,18.65
2023-01-19T14:17:21.721Z,18.64
2023-01-19T14:19:49.771Z,18.66
2023-01-19T14:22:17.471Z,18.69
2023-01-19T14:24:46.505Z,18.70
2023-01-19T14:27:22.654Z,18.69
2023-01-19T14:29:53.545Z,18.73
2023-01-19T14:32:22.034Z,18.76
2023-01-19T14:34:51.132Z,18.77
2023-01-19T14:37:21.139Z,18.77
2023-01-19T14:39:50.997Z,18.77
2023-01-19T14:42:24.687Z,18.78
2023-01-19T14:44:53.088Z,18.79
2023-01-19T14:47:37.495Z,18.79
2023-01-19T14:50:08.459Z,18.79
2023-01-19T14:52:38.484Z,18.77
2023-01-19T14:55:10.081Z,18.74
2023-01-19T14:57:38.097Z,18.73
2023-01-19T15:00:17.738Z,18.68
2023-01-19T15:02:45.669Z,18.63
2023-01-19T15:05:13.509Z,18.60
2023-01-19T15:07:42.379Z,18.59
2023-01-19T15:10:16.851Z,18.58
2023-01-19T15:12:44.593Z,18.55
2023-01-19T15:15:16.505Z,18.52
2023-01-19T15:17:44.168Z,18.49
2023-01-19T15:20:16.378Z,18.47
2023-01-19T15:22:44.463Z,18.44
2023-01-19T15:25:15.655Z,18.44
2023-01-19T15:27:43.561Z,18.40
2023-01-19T15:30:18.391Z,18.38
2023-01-19T15:32:46.156Z,18.35
2023-01-19T15:35:15.641Z,18.33
2023-01-19T15:37:43.318Z,18.29
2023-01-19T15:40:12.038Z,18.25
2023-01-19T15:42:41.078Z,18.24
2023-01-19T15:45:30.761Z,18.24
2023-01-19T15:47:58.436Z,18.22
2023-01-19T15:50:26.181Z,18.19
2023-01-19T15:52:53.866Z,18.19
2023-01-19T15:55:21.597Z,18.18
2023-01-19T15:57:50.649Z,18.17
2023-01-19T16:00:18.582Z,18.16
2023-01-19T16:02:46.316Z,18.15
2023-01-19T16:05:14.048Z,18.15
2023-01-19T16:07:41.744Z,18.16
2023-01-19T16:10:10.487Z,18.15
2023-01-19T16:12:38.315Z,18.15
2023-01-19T16:15:08.937Z,18.14
2023-01-19T16:17:37.457Z,18.14
2023-01-19T16:20:05.233Z,18.14
2023-01-19T16:22:32.890Z,18.13
2023-01-19T16:25:00.614Z,18.13
2023-01-19T16:27:28.309Z,18.15
2023-01-19T16:29:57.021Z,18.12
2023-01-19T16:32:26.091Z,18.10
2023-01-19T16:34:53.762Z,18.10
2023-01-19T16:37:21.421Z,18.09
2023-01-19T16:39:51.276Z,18.08
2023-01-19T16:42:19.330Z,18.06
2023-01-19T16:44:47.073Z,18.04
2023-01-19T16:47:14.728Z,18.04
2023-01-19T16:49:43.782Z,18.03
2023-01-19T16:52:11.467Z,18.02
2023-01-19T16:54:39.509Z,18.02
2023-01-19T16:57:07.191Z,18.03
2023-01-19T16:59:35.124Z,18.03
2023-01-19T17:02:03.052Z,18.02
2023-01-19T17:04:30.792Z,18.01
2023-01-19T17:06:59.887Z,18.02
2023-01-19T17:09:27.554Z,18.00
2023-01-19T17:11:55.245Z,18.00
2023-01-19T17:14:22.933Z,17.99
2023-01-19T17:16:50.780Z,17.97
2023-01-19T17:19:19.462Z,17.99
2023-01-19T17:21:48.607Z,18.00
2023-01-19T17:24:17.792Z,17.99
2023-01-19T17:26:48.449Z,17.99
2023-01-19T17:29:16.160Z,17.98
2023-01-19T17:31:44.367Z,17.99
2023-01-19T17:34:12.068Z,18.00
2023-01-19T17:36:40.931Z,18.00
2023-01-19T17:39:11.264Z,18.00
2023-01-19T17:41:40.319Z,18.00
2023-01-19T17:44:08.033Z,18.00
2023-01-19T17:46:36.838Z,18.01
2023-01-19T17:49:05.905Z,18.03
2023-01-19T17:51:33.684Z,18.03
2023-01-19T17:54:01.371Z,18.03
2023-01-19T17:56:30.221Z,18.04
2023-01-19T17:58:59.796Z,18.06
2023-01-19T18:01:28.546Z,18.05
2023-01-19T18:03:56.419Z,18.05
2023-01-19T18:06:24.203Z,18.06
2023-01-19T18:08:52.441Z,18.09
2023-01-19T18:11:21.155Z,18.14
2023-01-19T18:13:49.537Z,18.16
2023-01-19T18:16:20.241Z,18.14
2023-01-19T18:18:49.582Z,18.16
2023-01-19T18:21:17.307Z,18.17
2023-01-19T18:23:45.584Z,18.19
2023-01-19T18:26:14.287Z,18.20
2023-01-19T18:28:41.974Z,18.22
2023-01-19T18:31:09.876Z,18.23
2023-01-19T18:33:39.605Z,18.24
2023-01-19T18:36:08.211Z,18.26
2023-01-19T18:38:35.977Z,18.29
2023-01-19T18:41:04.095Z,18.30
2023-01-19T18:43:31.835Z,18.28
2023-01-19T18:45:59.554Z,18.27
2023-01-19T18:48:27.350Z,18.27
2023-01-19T18:50:56.393Z,18.26
2023-01-19T18:53:24.212Z,18.25
2023-01-19T18:55:52.765Z,18.24
2023-01-19T18:58:20.611Z,18.24
2023-01-19T19:00:48.456Z,18.23
2023-01-19T19:03:16.194Z,18.22
2023-01-19T19:05:43.988Z,18.21
2023-01-19T19:08:13.070Z,18.21
2023-01-19T19:10:41.231Z,18.21
2023-01-19T19:13:08.917Z,18.20
2023-01-19T19:15:36.760Z,18.22
2023-01-19T19:18:04.494Z,18.24
2023-01-19T19:20:32.146Z,18.23
2023-01-19T19:22:59.836Z,18.24
2023-01-19T19:25:29.053Z,18.23
2023-01-19T19:27:56.735Z,18.23
2023-01-19T19:30:24.431Z,18.23
2023-01-19T19:32:56.040Z,18.22
2023-01-19T19:35:23.761Z,18.23
2023-01-19T19:37:51.509Z,18.24
2023-01-19T19:40:19.380Z,18.25
2023-01-19T19:42:48.399Z,18.27
2023-01-19T19:45:16.099Z,18.26
2023-01-19T19:47:43.900Z,18.26
2023-01-19T19:50:12.647Z,18.25
2023-01-19T19:52:40.644Z,18.29
2023-01-19T19:55:09.104Z,18.29
2023-01-19T19:57:36.807Z,18.28
2023-01-19T20:00:07.233Z,18.26
2023-01-19T20:02:34.930Z,18.24
2023-01-19T20:05:02.698Z,18.23
2023-01-19T20:07:30.464Z,18.21
2023-01-19T20:09:58.141Z,18.20
2023-01-19T20:12:25.896Z,18.20
2023-01-19T20:14:53.563Z,18.20
2023-01-19T20:17:23.166Z,18.17
2023-01-19T20:19:50.864Z,18.16
2023-01-19T20:22:18.546Z,18.14
2023-01-19T20:24:46.219Z,18.16
2023-01-19T20:27:13.900Z,18.16
2023-01-19T20:29:41.587Z,18.14
2023-01-19T20:32:10.672Z,18.13
2023-01-19T20:34:39.831Z,18.11
2023-01-19T20:37:07.517Z,18.11
2023-01-19T20:39:36.738Z,18.09
2023-01-19T20:42:04.968Z,18.09
2023-01-19T20:44:32.650Z,18.07
2023-01-19T20:47:00.346Z,18.06
2023-01-19T20:49:28.136Z,18.04
2023-01-19T20:51:57.186Z,18.03
2023-01-19T20:54:26.789Z,18.03
2023-01-19T20:56:54.553Z,18.04
2023-01-19T20:59:22.267Z,18.04
2023-01-19T21:01:50.237Z,18.03
2023-01-19T21:04:18.318Z,18.02
2023-01-19T21:06:46.005Z,18.01
2023-01-19T21:09:15.053Z,18.01
2023-01-19T21:11:42.723Z,17.98
2023-01-19T21:14:10.389Z,17.99
2023-01-19T21:16:38.111Z,17.98
2023-01-19T21:19:06.117Z,17.99
2023-01-19T21:21:33.807Z,17.99
2023-01-19T21:24:02.131Z,18.01
2023-01-19T21:26:31.459Z,18.01
2023-01-19T21:28:59.252Z,18.00
2023-01-19T21:31:28.011Z,17.99
2023-01-19T21:33:56.004Z,18.00
2023-01-19T21:36:23.844Z,18.00
2023-01-19T21:38:52.229Z,18.01
2023-01-19T21:41:20.019Z,18.02
2023-01-19T21:43:49.139Z,18.03
2023-01-19T21:46:18.483Z,18.02
2023-01-19T21:48:46.778Z,18.00
2023-01-19T21:51:14.533Z,17.98
2023-01-19T21:53:42.507Z,18.00
2023-01-19T21:56:10.386Z,17.98
2023-01-19T21:58:38.191Z,17.98
2023-01-19T22:01:10.658Z,17.99
2023-01-19T22:03:38.511Z,17.99
2023-01-19T22:06:06.872Z,17.99
2023-01-19T22:08:34.750Z,17.99
2023-01-19T22:11:05.297Z,17.98
2023-01-19T22:13:33.185Z,17.96
2023-01-19T22:16:01.704Z,17.92
2023-01-19T22:18:30.754Z,17.90
2023-01-19T22:21:07.926Z,17.89
2023-01-19T22:23:35.592Z,17.91
2023-01-19T22:26:03.777Z,17.90
2023-01-19T22:28:31.645Z,17.91
2023-01-19T22:31:03.826Z,17.93
2023-01-19T22:33:32.985Z,17.92
2023-01-19T22:36:11.438Z,17.90
2023-01-19T22:38:40.102Z,17.89
2023-01-19T22:41:15.650Z,17.88
2023-01-19T22:43:43.848Z,17.88
2023-01-19T22:46:11.620Z,17.87
2023-01-19T22:48:41.400Z,17.89
2023-01-19T22:51:09.318Z,17.92
2023-01-19T22:53:36.986Z,17.93
2023-01-19T22:56:11.758Z,17.94
2023-01-19T22:58:40.334Z,17.95
2023-01-19T23:01:08.602Z,17.92
2023-01-19T23:03:36.459Z,17.88
2023-01-19T23:06:06.555Z,17.89
2023-01-19T23:08:35.106Z,17.92
2023-01-19T23:11:05.755Z,17.93
2023-01-19T23:13:33.422Z,17.96
2023-01-19T23:16:01.192Z,17.95
2023-01-19T23:18:28.992Z,17.96
2023-01-19T23:20:56.784Z,17.93
2023-01-19T23:23:25.794Z,17.90
2023-01-19T23:25:53.486Z,17.90
2023-01-19T23:28:21.154Z,17.89
2023-01-19T23:30:48.898Z,17.89
2023-01-19T23:33:16.799Z,17.92
2023-01-19T23:35:44.500Z,17.95
2023-01-19T23:38:12.201Z,17.95
2023-01-19T23:40:41.229Z,17.97
2023-01-19T23:43:08.927Z,17.93
2023-01-19T23:45:36.650Z,17.93
2023-01-19T23:48:04.415Z,17.98
2023-01-19T23:50:32.093Z,18.01
2023-01-19T23:52:59.800Z,18.02
2023-01-19T23:55:28.392Z,18.01
2023-01-19T23:57:57.418Z,18.00
